TimeEST,TemperatureF,Dew PointF,Humidity,Sea Level PressureIn,VisibilityMPH,Wind Direction,Wind SpeedMPH,Gust SpeedMPH,PrecipitationIn,Events,Conditions,WindDirDegrees,DateUTC
12:15 AM,42.8,41.0,93,29.67,0.5,West,4.6,-,N/A,Fog,Fog,280,2012-12-10 05:15:00
12:35 AM,42.8,41.0,93,29.67,0.8,West,8.1,-,N/A,,Overcast,280,2012-12-10 05:35:00
12:55 AM,42.8,42.8,100,29.67,2.5,West,8.1,-,N/A,,Overcast,270,2012-12-10 05:55:00
1:15 AM,42.8,42.8,100,29.67,5.0,West,12.7,-,N/A,,Overcast,280,2012-12-10 06:15:00
1:35 AM,42.8,41.0,93,29.67,4.0,West,11.5,16.1,N/A,,Overcast,280,2012-12-10 06:35:00
1:55 AM,42.8,41.0,93,29.66,3.0,West,10.4,16.1,N/A,,Overcast,260,2012-12-10 06:55:00
2:15 AM,41.0,41.0,100,29.67,2.5,WSW,6.9,-,N/A,,Overcast,240,2012-12-10 07:15:00
2:35 AM,41.0,39.2,93,29.68,2.5,WSW,9.2,-,N/A,,Overcast,250,2012-12-10 07:35:00
2:55 AM,41.0,39.2,93,29.68,2.0,West,10.4,-,N/A,,Overcast,270,2012-12-10 07:55:00
3:15 AM,39.2,37.4,93,29.68,5.0,West,17.3,20.7,N/A,,Overcast,270,2012-12-10 08:15:00
3:55 AM,39.2,37.4,93,29.67,10.0,West,9.2,16.1,N/A,,Overcast,270,2012-12-10 08:55:00
4:15 AM,37.4,37.4,100,29.68,5.0,West,12.7,19.6,N/A,,Overcast,260,2012-12-10 09:15:00
4:35 AM,37.4,35.6,93,29.68,7.0,West,15.0,20.7,N/A,,Overcast,270,2012-12-10 09:35:00
4:55 AM,37.4,35.6,93,29.68,10.0,West,11.5,16.1,N/A,,Overcast,260,2012-12-10 09:55:00
5:15 AM,37.4,33.8,87,29.68,10.0,West,15.0,25.3,N/A,,Overcast,270,2012-12-10 10:15:00
5:35 AM,37.4,33.8,87,29.68,10.0,West,10.4,-,N/A,,Overcast,270,2012-12-10 10:35:00
5:55 AM,37.4,33.8,87,29.68,10.0,West,12.7,19.6,N/A,,Overcast,270,2012-12-10 10:55:00
6:15 AM,37.4,33.8,87,29.67,10.0,West,12.7,16.1,N/A,,Overcast,280,2012-12-10 11:15:00
6:35 AM,37.4,33.8,87,29.68,10.0,West,6.9,-,N/A,,Overcast,270,2012-12-10 11:35:00
6:55 AM,37.4,33.8,87,29.68,10.0,West,11.5,16.1,N/A,,Overcast,260,2012-12-10 11:55:00
7:15 AM,37.4,33.8,87,29.69,10.0,West,9.2,-,N/A,,Overcast,270,2012-12-10 12:15:00
7:35 AM,35.6,33.8,93,29.69,10.0,West,9.2,17.3,N/A,,Overcast,270,2012-12-10 12:35:00
7:55 AM,35.6,32.0,87,29.69,10.0,West,10.4,-,N/A,,Overcast,270,2012-12-10 12:55:00
8:15 AM,35.6,32.0,87,29.71,10.0,WSW,9.2,-,N/A,,Mostly Cloudy,250,2012-12-10 13:15:00
8:35 AM,35.6,32.0,87,29.71,10.0,West,8.1,-,N/A,,Scattered Clouds,260,2012-12-10 13:35:00
8:55 AM,35.6,32.0,87,29.71,10.0,West,10.4,-,N/A,,Scattered Clouds,270,2012-12-10 13:55:00
9:15 AM,35.6,32.0,87,29.71,10.0,West,13.8,17.3,N/A,,Overcast,270,2012-12-10 14:15:00
9:35 AM,35.6,32.0,87,29.71,10.0,West,13.8,17.3,N/A,,Overcast,270,2012-12-10 14:35:00
9:55 AM,33.8,30.2,87,29.72,10.0,West,9.2,18.4,N/A,,Mostly Cloudy,260,2012-12-10 14:55:00
10:15 AM,35.6,32.0,87,29.72,10.0,West,15.0,-,N/A,,Scattered Clouds,270,2012-12-10 15:15:00
10:35 AM,35.6,32.0,87,29.73,10.0,West,13.8,17.3,N/A,,Mostly Cloudy,270,2012-12-10 15:35:00
10:55 AM,35.6,32.0,87,29.73,10.0,West,12.7,-,N/A,,Overcast,260,2012-12-10 15:55:00
11:15 AM,35.6,30.2,81,29.73,10.0,West,12.7,18.4,N/A,,Overcast,260,2012-12-10 16:15:00
11:35 AM,35.6,30.2,81,29.73,10.0,West,12.7,19.6,N/A,,Overcast,270,2012-12-10 16:35:00
11:55 AM,35.6,32.0,87,29.72,10.0,West,10.4,-,N/A,,Mostly Cloudy,260,2012-12-10 16:55:00
12:15 PM,35.6,32.0,87,29.72,7.0,West,11.5,18.4,N/A,,Overcast,270,2012-12-10 17:15:00
12:55 PM,35.6,32.0,87,29.71,7.0,West,10.4,-,N/A,,Overcast,270,2012-12-10 17:55:00
1:15 PM,33.8,32.0,93,29.71,7.0,West,12.7,16.1,N/A,,Overcast,270,2012-12-10 18:15:00
1:35 PM,33.8,30.2,87,29.71,5.0,West,10.4,17.3,N/A,,Overcast,270,2012-12-10 18:35:00
1:55 PM,33.8,30.2,87,29.71,5.0,West,11.5,-,N/A,,Overcast,270,2012-12-10 18:55:00
2:15 PM,33.8,30.2,87,29.71,5.0,West,12.7,-,N/A,,Overcast,270,2012-12-10 19:15:00
2:35 PM,33.8,30.2,87,29.71,5.0,West,12.7,16.1,N/A,,Overcast,270,2012-12-10 19:35:00
2:55 PM,33.8,30.2,87,29.72,5.0,West,11.5,-,N/A,,Overcast,280,2012-12-10 19:55:00
3:15 PM,33.8,30.2,87,29.73,5.0,WSW,9.2,17.3,N/A,,Overcast,250,2012-12-10 20:15:00
3:35 PM,33.8,30.2,87,29.73,5.0,West,11.5,16.1,N/A,,Overcast,270,2012-12-10 20:35:00
3:55 PM,33.8,30.2,87,29.73,5.0,West,5.8,-,N/A,,Overcast,260,2012-12-10 20:55:00
4:15 PM,33.8,30.2,87,29.73,5.0,West,11.5,-,N/A,,Overcast,280,2012-12-10 21:15:00
4:55 PM,33.8,30.2,87,29.75,5.0,WNW,10.4,-,N/A,,Overcast,290,2012-12-10 21:55:00
5:15 PM,33.8,30.2,87,29.76,7.0,West,10.4,-,N/A,,Overcast,270,2012-12-10 22:15:00
5:35 PM,33.8,30.2,87,29.78,7.0,West,11.5,17.3,N/A,,Overcast,280,2012-12-10 22:35:00
5:55 PM,33.8,30.2,87,29.78,5.0,West,10.4,-,N/A,,Overcast,280,2012-12-10 22:55:00
6:15 PM,32.0,30.2,93,29.78,3.0,West,8.1,-,N/A,Rain,Light Rain,280,2012-12-10 23:15:00
6:35 PM,32.0,32.0,100,29.78,4.0,West,8.1,-,N/A,,Overcast,280,2012-12-10 23:35:00
6:55 PM,32.0,32.0,100,29.80,5.0,West,5.8,-,N/A,,Overcast,270,2012-12-10 23:55:00
7:15 PM,32.0,32.0,100,29.80,5.0,WSW,5.8,-,N/A,,Overcast,250,2012-12-11 00:15:00
7:35 PM,32.0,32.0,100,29.81,5.0,West,5.8,-,N/A,,Overcast,260,2012-12-11 00:35:00
7:55 PM,32.0,32.0,100,29.81,5.0,West,4.6,-,N/A,,Overcast,270,2012-12-11 00:55:00
8:15 PM,33.8,32.0,93,29.83,5.0,West,4.6,-,N/A,,Overcast,260,2012-12-11 01:15:00
8:35 PM,33.8,32.0,93,29.83,5.0,West,4.6,-,N/A,,Overcast,260,2012-12-11 01:35:00
8:55 PM,33.8,32.0,93,29.84,5.0,West,4.6,-,N/A,Snow,Light Snow,270,2012-12-11 01:55:00
9:15 PM,33.8,32.0,93,29.84,4.0,West,3.5,-,N/A,Snow,Light Snow,270,2012-12-11 02:15:00
9:35 PM,33.8,32.0,93,29.85,4.0,West,3.5,-,N/A,Snow,Light Snow,260,2012-12-11 02:35:00
9:55 PM,33.8,32.0,93,29.85,4.0,West,4.6,-,N/A,Snow,Light Snow,280,2012-12-11 02:55:00
10:15 PM,33.8,32.0,93,29.86,4.0,West,4.6,-,N/A,Snow,Light Snow,260,2012-12-11 03:15:00
10:35 PM,33.8,32.0,93,29.87,7.0,West,4.6,-,N/A,,Overcast,270,2012-12-11 03:35:00
10:55 PM,33.8,32.0,93,29.87,7.0,West,3.5,-,N/A,Snow,Light Snow,280,2012-12-11 03:55:00
11:15 PM,33.8,32.0,93,29.88,7.0,West,3.5,-,N/A,,Overcast,270,2012-12-11 04:15:00
11:35 PM,33.8,32.0,93,29.88,7.0,West,3.5,-,N/A,Snow,Light Snow,260,2012-12-11 04:35:00
11:55 PM,32.0,30.2,93,29.89,2.0,WSW,3.5,-,N/A,Snow,Light Snow,250,2012-12-11 04:55:00